Time;durP1;ratioP1;P1;durP2;ratioP2;P2;SDS_P1;SDS_P2;PMS_P1;PMS_P2;Temp;Humidity;BMP_temperature;BMP_pressure;BME280_temperature;BME280_humidity;BME280_pressure;Samples;Min_cycle;Max_cycle;Signal;HPM_P1;HPM_P2
2022/12/30 18:11:41;;;;;;;13.20;9.33;;;6.40;99.90;;;;;;5140099;27;20275;-88
2022/12/30 18:14:07;;;;;;;17.57;10.13;;;6.50;99.90;;;;;;5139190;28;20258;-88
2022/12/30 18:16:34;;;;;;;13.13;8.87;;;6.50;99.90;;;;;;5121245;28;20605;-87
2022/12/30 18:19:02;;;;;;;18.97;10.33;;;6.50;99.90;;;;;;5141789;28;20151;-87
2022/12/30 18:21:28;;;;;;;13.57;8.97;;;6.50;99.90;;;;;;5122054;28;20175;-91
2022/12/30 18:23:54;;;;;;;14.77;9.93;;;6.40;99.90;;;;;;5149384;27;20167;-89
2022/12/30 18:26:24;;;;;;;14.90;9.13;;;6.40;99.90;;;;;;5156909;27;20186;-86
2022/12/30 18:28:50;;;;;;;15.67;9.27;;;6.40;99.90;;;;;;5146492;27;20274;-86
2022/12/30 18:31:27;;;;;;;14.57;9.43;;;6.30;99.90;;;;;;5136565;28;20209;-86
2022/12/30 18:33:53;;;;;;;17.07;10.20;;;6.30;99.90;;;;;;5116442;28;20174;-89
2022/12/30 18:36:21;;;;;;;18.33;10.00;;;6.30;99.90;;;;;;5134413;28;20218;-86
2022/12/30 18:38:47;;;;;;;14.43;9.47;;;6.30;99.90;;;;;;5116856;28;20187;-86
2022/12/30 18:41:19;;;;;;;15.73;9.20;;;6.30;99.90;;;;;;5134939;28;20164;-87
2022/12/30 18:43:49;;;;;;;16.67;10.90;;;6.20;99.90;;;;;;5116924;28;20177;-89
2022/12/30 18:46:19;;;;;;;16.50;10.10;;;6.20;99.90;;;;;;5115503;28;20179;-87
2022/12/30 18:48:55;;;;;;;16.70;9.67;;;6.30;99.90;;;;;;5118945;28;20171;-86
2022/12/30 18:51:21;;;;;;;14.50;9.47;;;6.20;99.90;;;;;;5119024;28;20639;-88
2022/12/30 18:53:48;;;;;;;13.87;9.23;;;6.20;99.90;;;;;;5100602;28;20205;-85
2022/12/30 18:56:17;;;;;;;12.63;9.43;;;6.20;99.90;;;;;;5122078;28;20237;-87
2022/12/30 18:58:44;;;;;;;18.23;10.03;;;6.20;99.90;;;;;;5116972;28;20594;-88
2022/12/30 19:01:16;;;;;;;14.70;9.80;;;6.20;99.90;;;;;;5117775;28;20199;-86
2022/12/30 19:03:42;;;;;;;14.13;9.33;;;6.10;99.90;;;;;;5145348;27;20172;-86
2022/12/30 19:06:08;;;;;;;16.03;10.00;;;6.20;99.90;;;;;;5118629;28;20207;-85
2022/12/30 19:08:37;;;;;;;15.83;10.67;;;6.10;99.90;;;;;;5116896;28;20266;-87
2022/12/30 19:11:08;;;;;;;14.00;9.13;;;6.10;99.90;;;;;;5122153;28;20706;-88
2022/12/30 19:13:34;;;;;;;15.60;9.97;;;6.10;99.90;;;;;;5116910;28;20222;-87
2022/12/30 19:16:07;;;;;;;14.87;10.30;;;6.10;99.90;;;;;;5117008;28;20175;-93
2022/12/30 19:18:35;;;;;;;18.93;11.07;;;6.00;99.90;;;;;;5133134;28;20630;-85
2022/12/30 19:21:02;;;;;;;13.47;10.30;;;6.00;99.90;;;;;;5130970;28;20168;-88
2022/12/30 19:23:30;;;;;;;16.23;10.23;;;6.00;99.90;;;;;;5103654;28;20603;-91
2022/12/30 19:25:56;;;;;;;16.97;9.67;;;6.10;99.90;;;;;;5138735;28;20172;-88
2022/12/30 19:28:22;;;;;;;14.03;9.57;;;6.10;99.90;;;;;;5110909;28;20213;-90
2022/12/30 19:30:48;;;;;;;15.83;10.03;;;6.10;99.90;;;;;;5127473;28;20667;-88
2022/12/30 19:33:14;;;;;;;13.93;10.10;;;6.00;99.90;;;;;;5101461;28;20182;-89
2022/12/30 19:35:40;;;;;;;17.90;9.80;;;6.00;99.90;;;;;;5099731;28;20180;-87
2022/12/30 19:38:06;;;;;;;13.83;8.93;;;5.90;99.90;;;;;;5120564;28;20162;-92
2022/12/30 19:40:37;;;;;;;11.50;9.23;;;5.90;99.90;;;;;;5121856;28;20598;-90
2022/12/30 19:43:03;;;;;;;12.33;9.30;;;5.80;99.90;;;;;;5120798;28;20555;-90
2022/12/30 19:45:30;;;;;;;11.00;8.93;;;5.70;99.90;;;;;;5121309;28;20170;-94
2022/12/30 19:47:56;;;;;;;13.57;8.50;;;5.60;99.90;;;;;;5106031;28;20174;-93
2022/12/30 19:50:23;;;;;;;13.53;9.00;;;5.60;99.90;;;;;;5124252;28;20231;-90
2022/12/30 19:52:49;;;;;;;13.40;9.43;;;5.60;99.90;;;;;;5104263;28;20792;-91
2022/12/30 19:55:14;;;;;;;14.33;9.30;;;5.50;99.90;;;;;;5117956;27;20195;-90
2022/12/30 19:57:41;;;;;;;17.77;11.07;;;5.50;99.90;;;;;;5139540;27;20190;-86
2022/12/30 20:00:08;;;;;;;17.73;11.50;;;5.50;99.90;;;;;;5127146;28;20170;-89
2022/12/30 20:02:33;;;;;;;16.43;10.13;;;5.50;99.90;;;;;;5103926;28;20192;-92
2022/12/30 20:04:59;;;;;;;16.67;10.77;;;5.40;99.90;;;;;;5138118;27;20172;-88
2022/12/30 20:07:25;;;;;;;13.97;9.47;;;5.40;99.90;;;;;;5123988;27;20161;-90
2022/12/30 20:09:51;;;;;;;15.30;9.47;;;5.40;99.90;;;;;;5134317;28;20228;-90
2022/12/30 20:12:17;;;;;;;15.50;9.80;;;5.30;99.90;;;;;;5128812;28;20194;-91
2022/12/30 20:14:44;;;;;;;14.30;9.30;;;5.30;99.90;;;;;;5101904;28;20174;-91
2022/12/30 20:17:12;;;;;;;14.63;8.20;;;5.30;99.90;;;;;;5101159;28;20175;-86
2022/12/30 20:19:38;;;;;;;12.83;8.90;;;5.20;99.90;;;;;;5100274;28;20646;-87
2022/12/30 20:22:04;;;;;;;11.03;8.23;;;5.20;99.90;;;;;;5118295;28;20226;-87
2022/12/30 20:24:31;;;;;;;12.23;8.07;;;5.20;99.90;;;;;;5102841;28;20178;-86
2022/12/30 20:26:59;;;;;;;9.73;7.87;;;5.10;99.90;;;;;;5124643;28;20167;-88
2022/12/30 20:29:25;;;;;;;12.27;8.53;;;5.10;99.90;;;;;;5106538;28;20193;-87
2022/12/30 20:31:55;;;;;;;13.00;8.97;;;4.90;99.90;;;;;;5099077;28;20270;-88
2022/12/30 20:34:21;;;;;;;10.77;7.80;;;4.90;99.90;;;;;;5097865;28;20178;-86
2022/12/30 20:36:47;;;;;;;10.43;7.17;;;4.90;99.90;;;;;;5104989;28;20189;-86
2022/12/30 20:39:18;;;;;;;9.47;7.13;;;4.90;99.90;;;;;;5120817;28;20250;-89
2022/12/30 20:41:44;;;;;;;10.67;7.30;;;4.80;99.90;;;;;;5110408;28;20584;-87
2022/12/30 20:44:12;;;;;;;13.17;8.40;;;4.70;99.90;;;;;;5101540;28;20180;-87
2022/12/30 20:46:37;;;;;;;10.00;7.17;;;4.70;99.90;;;;;;5099712;28;20221;-89
2022/12/30 20:49:03;;;;;;;13.30;8.40;;;4.70;99.90;;;;;;5117005;28;20182;-86
2022/12/30 20:51:29;;;;;;;11.50;7.63;;;4.80;99.90;;;;;;5118749;28;20200;-86
2022/12/30 20:53:56;;;;;;;11.17;7.60;;;4.80;99.90;;;;;;5110336;28;20185;-86
2022/12/30 20:56:24;;;;;;;10.07;8.07;;;4.70;99.90;;;;;;5108318;28;20178;-88
2022/12/30 20:58:54;;;;;;;12.80;8.57;;;4.70;99.90;;;;;;5117404;28;20234;-87
2022/12/30 21:01:22;;;;;;;10.37;7.63;;;4.70;99.90;;;;;;5098540;28;20173;-88
2022/12/30 21:03:53;;;;;;;12.50;7.77;;;4.60;99.90;;;;;;5098627;28;20178;-85
2022/12/30 21:06:19;;;;;;;9.37;7.27;;;4.60;99.90;;;;;;5118378;28;20660;-85
2022/12/30 21:08:45;;;;;;;10.40;7.77;;;4.60;99.90;;;;;;5099709;28;20187;-90
2022/12/30 21:11:12;;;;;;;10.57;7.20;;;4.50;99.90;;;;;;5118608;28;20289;-88
2022/12/30 21:13:41;;;;;;;13.43;7.50;;;4.50;99.90;;;;;;5104654;28;20174;-92
2022/12/30 21:16:08;;;;;;;10.40;7.60;;;4.50;99.90;;;;;;5122600;28;20194;-91
2022/12/30 21:18:35;;;;;;;11.77;8.07;;;4.40;99.90;;;;;;5101768;28;20166;-91
2022/12/30 21:21:02;;;;;;;9.13;7.23;;;4.50;99.90;;;;;;5116931;28;20197;-89
2022/12/30 21:23:28;;;;;;;11.43;7.37;;;4.50;99.90;;;;;;5099163;28;20252;-89
2022/12/30 21:26:11;;;;;;;9.00;7.20;;;4.50;99.90;;;;;;5098464;28;20170;-88
2022/12/30 21:28:40;;;;;;;10.60;7.10;;;4.50;99.90;;;;;;5117154;28;20176;-91
2022/12/30 21:31:11;;;;;;;10.77;7.33;;;4.40;99.90;;;;;;5099501;28;20209;-89
2022/12/30 21:33:37;;;;;;;11.30;7.17;;;4.30;99.90;;;;;;5099683;28;20166;-91
2022/12/30 21:36:15;;;;;;;8.87;6.23;;;4.30;99.90;;;;;;5117455;28;20247;-91
2022/12/30 22:02:49;;;;;;;9.47;6.10;;;4.60;99.90;;;;;;5113233;28;20192;-90
2022/12/30 22:05:19;;;;;;;9.60;6.73;;;4.60;99.90;;;;;;5101635;28;20180;-92
2022/12/30 22:07:47;;;;;;;9.37;6.93;;;4.60;99.90;;;;;;5119662;28;20165;-93
2022/12/30 22:10:15;;;;;;;15.47;7.13;;;4.50;99.90;;;;;;5105887;28;20318;-92
2022/12/30 22:12:44;;;;;;;14.47;7.67;;;4.50;99.90;;;;;;5129014;28;20197;-91
2022/12/30 22:15:11;;;;;;;15.03;8.87;;;4.50;99.90;;;;;;5106272;28;20170;-92
2022/12/30 22:17:37;;;;;;;9.50;7.07;;;4.40;99.90;;;;;;5127649;28;20174;-90
2022/12/30 22:20:04;;;;;;;11.80;7.73;;;4.30;99.90;;;;;;5113219;28;20181;-89
2022/12/30 22:22:41;;;;;;;13.43;7.53;;;4.20;99.90;;;;;;5121006;27;20180;-89
2022/12/30 22:25:08;;;;;;;9.33;6.93;;;4.30;99.90;;;;;;5132127;27;20166;-90
2022/12/30 22:27:34;;;;;;;12.20;7.57;;;4.30;99.90;;;;;;5105038;28;20181;-90
2022/12/30 22:29:59;;;;;;;7.30;5.67;;;4.30;99.90;;;;;;5119610;28;20681;-88
2022/12/30 22:32:25;;;;;;;8.03;5.90;;;4.40;99.90;;;;;;5120108;28;20222;-89
2022/12/30 22:34:51;;;;;;;5.97;4.87;;;4.40;99.90;;;;;;5118945;28;20181;-90
2022/12/30 22:37:17;;;;;;;8.03;5.10;;;4.50;99.90;;;;;;5108457;28;20174;-93
2022/12/30 22:39:43;;;;;;;5.03;4.47;;;4.60;99.90;;;;;;5132494;28;20230;-86
2022/12/30 22:42:08;;;;;;;4.67;4.07;;;4.60;99.90;;;;;;5106471;28;20162;-87
2022/12/30 22:44:34;;;;;;;6.90;5.07;;;4.70;99.90;;;;;;5118728;28;20249;-88
2022/12/30 22:47:00;;;;;;;9.97;5.17;;;4.80;99.90;;;;;;5099034;28;20625;-89
2022/12/30 22:49:26;;;;;;;5.83;4.43;;;4.80;99.90;;;;;;5118111;28;20684;-90
2022/12/30 22:51:51;;;;;;;6.93;4.60;;;5.00;99.90;;;;;;5102499;28;20589;-87
2022/12/30 22:54:17;;;;;;;5.67;4.07;;;4.90;99.90;;;;;;5124754;28;20248;-88
2022/12/30 22:56:43;;;;;;;6.47;4.67;;;5.00;99.90;;;;;;5127207;28;20175;-86
2022/12/30 22:59:09;;;;;;;4.53;4.00;;;5.00;99.90;;;;;;5099661;28;20218;-88
2022/12/30 23:01:35;;;;;;;5.13;4.30;;;5.00;99.90;;;;;;5134861;28;20174;-92
2022/12/30 23:04:01;;;;;;;5.30;4.20;;;5.10;99.90;;;;;;5107772;28;20227;-92
2022/12/30 23:06:26;;;;;;;4.60;4.20;;;5.10;99.90;;;;;;5107306;28;20580;-93
2022/12/30 23:08:52;;;;;;;6.57;4.47;;;5.10;99.90;;;;;;5103695;28;20175;-89
2022/12/30 23:11:21;;;;;;;4.53;3.97;;;5.10;99.90;;;;;;5101881;28;20252;-87
2022/12/30 23:16:34;;;;;;;5.37;4.77;;;5.10;99.90;;;;;;5122192;28;20205;-87
2022/12/30 23:19:01;;;;;;;7.40;5.90;;;5.00;99.90;;;;;;5123002;28;20168;-90
2022/12/30 23:21:26;;;;;;;6.97;5.27;;;4.90;99.90;;;;;;5115463;28;20173;-87
2022/12/30 23:26:40;;;;;;;6.50;5.17;;;4.90;99.90;;;;;;5128626;28;20185;-93
2022/12/30 23:29:08;;;;;;;6.03;5.07;;;4.90;99.90;;;;;;5122761;28;20180;-94
2022/12/30 23:31:36;;;;;;;8.23;5.50;;;4.90;99.90;;;;;;5104317;28;20213;-93
2022/12/30 23:34:07;;;;;;;6.27;4.90;;;5.00;99.90;;;;;;5109146;28;20182;-92
2022/12/30 23:36:37;;;;;;;7.67;5.00;;;4.90;99.90;;;;;;5108828;28;20261;-91
2022/12/30 23:39:04;;;;;;;7.37;5.43;;;4.90;99.90;;;;;;5128100;28;20167;-90
2022/12/30 23:41:31;;;;;;;7.43;5.23;;;5.00;99.90;;;;;;5118688;28;20202;-94
2022/12/30 23:43:57;;;;;;;6.40;5.10;;;4.90;99.90;;;;;;5126916;28;20168;-91
2022/12/30 23:46:23;;;;;;;7.77;5.57;;;4.90;99.90;;;;;;5131233;28;20167;-91
2022/12/30 23:48:49;;;;;;;7.87;5.23;;;4.90;99.90;;;;;;5108694;28;20178;-91
2022/12/30 23:51:21;;;;;;;7.90;5.33;;;4.90;99.90;;;;;;5114011;28;20209;-93
2022/12/30 23:53:48;;;;;;;5.47;4.80;;;4.90;99.90;;;;;;5122561;28;20178;-91
2022/12/30 23:56:19;;;;;;;5.17;4.47;;;4.80;99.90;;;;;;5103885;28;20178;-93
2022/12/30 23:58:46;;;;;;;6.10;5.20;;;4.80;99.90;;;;;;5135430;28;20148;-92
